createdAt,value
2019-02-18T00:00:07.252Z,-0.7
2019-02-18T00:00:57.023Z,-0.7
2019-02-18T00:01:47.416Z,-0.7
2019-02-18T00:02:37.133Z,-0.7
2019-02-18T00:03:27.539Z,-0.8
2019-02-18T00:04:17.544Z,-0.8
2019-02-18T00:05:07.386Z,-0.8
2019-02-18T00:05:57.633Z,-0.8
2019-02-18T00:06:47.700Z,-0.8
2019-02-18T00:07:37.505Z,-0.8
2019-02-18T00:08:27.558Z,-0.9
2019-02-18T00:09:17.333Z,-0.9
2019-02-18T00:13:27.903Z,-1
2019-02-18T00:14:18.211Z,-1
2019-02-18T00:15:08.368Z,-1
2019-02-18T00:15:58.065Z,-1
2019-02-18T00:16:48.120Z,-1.1
2019-02-18T00:17:38.173Z,-1.1
2019-02-18T00:18:28.248Z,-1.1
2019-02-18T00:19:18.578Z,-1.1
2019-02-18T00:20:08.095Z,-1.1
2019-02-18T00:20:58.685Z,-1.1
2019-02-18T00:21:48.735Z,-1.2
2019-02-18T00:22:38.804Z,-1.2
2019-02-18T00:23:28.594Z,-1.2
2019-02-18T00:24:18.922Z,-1.2
2019-02-18T00:25:08.700Z,-1.2
2019-02-18T00:25:58.769Z,-1.3
2019-02-18T00:26:48.800Z,-1.3
2019-02-18T00:27:39.147Z,-1.3
2019-02-18T00:28:29.198Z,-1.3
2019-02-18T00:29:18.717Z,-1.3
2019-02-18T00:30:09.072Z,-1.4
2019-02-18T00:30:59.094Z,-1.4
2019-02-18T00:31:49.151Z,-1.4
2019-02-18T00:32:39.494Z,-1.4
2019-02-18T00:33:29.279Z,-1.4
2019-02-18T00:34:19.603Z,-1.4
2019-02-18T00:35:09.414Z,-1.4
2019-02-18T00:35:59.719Z,-1.4
2019-02-18T00:36:49.777Z,-1.5
2019-02-18T00:37:39.826Z,-1.5
2019-02-18T00:38:29.899Z,-1.5
2019-02-18T00:39:19.948Z,-1.5
2019-02-18T00:40:10.026Z,-1.6
2019-02-18T00:40:59.804Z,-1.6
2019-02-18T00:41:50.852Z,-1.6
2019-02-18T00:42:39.915Z,-1.6
2019-02-18T00:43:30.249Z,-1.6
2019-02-18T00:44:20.303Z,-1.6
2019-02-18T00:45:10.363Z,-1.6
2019-02-18T00:46:00.411Z,-1.6
2019-02-18T00:46:50.200Z,-1.7
2019-02-18T00:47:40.266Z,-1.7
2019-02-18T00:48:30.593Z,-1.8
2019-02-18T00:49:20.383Z,-1.8
2019-02-18T00:50:10.430Z,-1.8
2019-02-18T00:51:00.751Z,-1.8
2019-02-18T00:51:50.540Z,-1.8
2019-02-18T00:52:40.870Z,-1.8
2019-02-18T00:53:30.993Z,-1.8
2019-02-18T00:54:20.730Z,-1.8
2019-02-18T00:55:10.507Z,-1.9
2019-02-18T00:56:00.830Z,-1.9
2019-02-18T00:56:51.160Z,-1.9
2019-02-18T00:57:41.238Z,-1.9
2019-02-18T00:58:31.290Z,-1.9
2019-02-18T00:59:21.124Z,-1.9
2019-02-18T01:00:11.131Z,-1.9
2019-02-18T01:01:01.482Z,-1.9
2019-02-18T01:01:51.520Z,-2
2019-02-18T01:02:41.284Z,-2
2019-02-18T01:03:31.615Z,-2
2019-02-18T01:04:21.686Z,-2
2019-02-18T01:05:11.477Z,-2.1
2019-02-18T01:06:01.570Z,-2.1
2019-02-18T01:06:51.582Z,-2.1
2019-02-18T01:07:41.652Z,-2.1
2019-02-18T01:08:31.715Z,-2.1
2019-02-18T01:09:21.753Z,-2.1
2019-02-18T01:10:12.095Z,-2.1
2019-02-18T01:11:02.251Z,-2.1
2019-02-18T01:11:52.211Z,-2.2
2019-02-18T01:12:42.255Z,-2.2
2019-02-18T01:13:32.035Z,-2.2
2019-02-18T01:14:22.377Z,-2.2
2019-02-18T01:15:12.455Z,-2.3
2019-02-18T01:16:02.520Z,-2.3
2019-02-18T01:16:52.277Z,-2.3
2019-02-18T01:17:42.609Z,-2.3
2019-02-18T01:18:32.666Z,-2.3
2019-02-18T01:19:22.717Z,-2.3
2019-02-18T01:20:12.525Z,-2.3
2019-02-18T01:21:02.837Z,-2.4
2019-02-18T01:21:52.884Z,-2.4
2019-02-18T01:22:42.956Z,-2.4
2019-02-18T01:23:33.071Z,-2.4
2019-02-18T01:24:23.068Z,-2.4
2019-02-18T01:25:12.891Z,-2.4
2019-02-18T01:26:03.181Z,-2.4
2019-02-18T01:26:53.249Z,-2.4
2019-02-18T01:27:43.050Z,-2.4
2019-02-18T01:28:33.393Z,-2.4
2019-02-18T01:29:23.408Z,-2.5
2019-02-18T01:30:13.203Z,-2.5
2019-02-18T01:31:03.313Z,-2.5
2019-02-18T01:31:53.315Z,-2.5
2019-02-18T01:32:43.641Z,-2.5
2019-02-18T01:33:33.688Z,-2.6
2019-02-18T01:34:23.766Z,-2.6
2019-02-18T01:35:13.815Z,-2.6
2019-02-18T01:36:03.903Z,-2.6
2019-02-18T01:36:53.652Z,-2.6
2019-02-18T01:37:47.519Z,-2.6
2019-02-18T01:38:34.053Z,-2.6
2019-02-18T01:39:24.111Z,-2.6
2019-02-18T01:40:14.163Z,-2.7
2019-02-18T01:41:04.254Z,-2.7
2019-02-18T01:41:54.280Z,-2.7
2019-02-18T01:42:44.350Z,-2.7
2019-02-18T01:43:33.835Z,-2.7
2019-02-18T01:44:24.475Z,-2.8
2019-02-18T01:45:14.519Z,-2.8
2019-02-18T01:46:04.571Z,-2.8
2019-02-18T01:46:54.622Z,-2.8
2019-02-18T01:47:44.682Z,-2.8
2019-02-18T01:48:34.787Z,-2.8
2019-02-18T01:49:24.519Z,-2.8
2019-02-18T01:50:14.907Z,-2.8
2019-02-18T01:51:04.649Z,-2.9
2019-02-18T01:51:54.424Z,-2.9
2019-02-18T01:52:45.053Z,-2.9
2019-02-18T01:53:34.817Z,-2.9
2019-02-18T01:54:24.874Z,-2.9
2019-02-18T01:55:14.941Z,-2.9
2019-02-18T01:56:05.257Z,-2.9
2019-02-18T01:56:55.307Z,-3
2019-02-18T01:57:45.377Z,-2.9
2019-02-18T01:58:35.432Z,-2.9
2019-02-18T01:59:25.486Z,-3
2019-02-18T02:00:15.027Z,-3
2019-02-18T02:01:05.323Z,-3
2019-02-18T02:01:55.663Z,-3.1
2019-02-18T02:02:45.531Z,-3.1
2019-02-18T02:03:35.828Z,-3.1
2019-02-18T02:04:25.839Z,-3.1
2019-02-18T02:05:15.659Z,-3.1
2019-02-18T02:06:05.679Z,-3.1
2019-02-18T02:06:56.003Z,-3.1
2019-02-18T02:07:57.323Z,-3.1
2019-02-18T02:08:35.868Z,-3.1
2019-02-18T02:09:25.621Z,-3.2
2019-02-18T02:10:15.972Z,-3.1
2019-02-18T02:11:06.291Z,-3.2
2019-02-18T02:11:56.346Z,-3.2
2019-02-18T02:12:46.407Z,-3.2
2019-02-18T02:13:36.481Z,-3.2
2019-02-18T02:14:26.558Z,-3.3
2019-02-18T02:15:16.643Z,-3.3
2019-02-18T02:16:06.645Z,-3.3
2019-02-18T02:16:56.712Z,-3.3
2019-02-18T02:17:46.760Z,-3.3
2019-02-18T02:18:36.813Z,-3.3
2019-02-18T02:19:26.890Z,-3.3
2019-02-18T02:20:16.667Z,-3.3
2019-02-18T02:21:06.714Z,-3.3
2019-02-18T02:21:56.775Z,-3.3
2019-02-18T02:22:46.827Z,-3.3
2019-02-18T02:23:36.887Z,-3.3
2019-02-18T02:24:26.962Z,-3.3
2019-02-18T02:25:17.277Z,-3.4
2019-02-18T02:26:07.086Z,-3.4
2019-02-18T02:26:57.127Z,-3.4
2019-02-18T02:27:47.452Z,-3.4
2019-02-18T02:28:37.237Z,-3.4
2019-02-18T02:29:27.564Z,-3.4
2019-02-18T02:30:17.398Z,-3.4
2019-02-18T02:31:07.721Z,-3.4
2019-02-18T02:31:57.824Z,-3.4
2019-02-18T02:32:47.540Z,-3.4
2019-02-18T02:33:37.609Z,-3.5
2019-02-18T02:34:27.669Z,-3.5
2019-02-18T02:35:17.988Z,-3.4
2019-02-18T02:36:08.017Z,-3.5
2019-02-18T02:36:57.814Z,-3.5
2019-02-18T02:37:47.928Z,-3.5
2019-02-18T02:38:37.940Z,-3.5
2019-02-18T02:39:28.271Z,-3.5
2019-02-18T02:40:18.054Z,-3.6
2019-02-18T02:41:08.397Z,-3.5
2019-02-18T02:41:58.156Z,-3.6
2019-02-18T02:42:48.511Z,-3.6
2019-02-18T02:43:38.554Z,-3.6
2019-02-18T02:44:28.632Z,-3.6
2019-02-18T02:45:18.654Z,-3.6
2019-02-18T02:46:08.784Z,-3.6
2019-02-18T02:46:58.243Z,-3.6
2019-02-18T02:47:48.833Z,-3.6
2019-02-18T02:48:38.621Z,-3.6
2019-02-18T02:49:28.691Z,-3.6
2019-02-18T02:50:19.048Z,-3.6
2019-02-18T02:51:09.091Z,-3.6
2019-02-18T02:51:59.142Z,-3.6
2019-02-18T02:52:48.928Z,-3.6
2019-02-18T02:53:39.251Z,-3.6
2019-02-18T02:54:29.033Z,-3.6
2019-02-18T02:55:19.350Z,-3.7
2019-02-18T02:56:09.486Z,-3.7
2019-02-18T02:56:59.466Z,-3.7
2019-02-18T02:57:49.521Z,-3.7
2019-02-18T02:58:39.607Z,-3.7
2019-02-18T02:59:29.153Z,-3.7
2019-02-18T03:00:19.735Z,-3.7
2019-02-18T03:01:09.758Z,-3.7
2019-02-18T03:08:02.210Z,-3.8
2019-02-18T03:09:42.575Z,-3.8
2019-02-18T03:10:32.348Z,-3.8
2019-02-18T03:11:22.703Z,-3.8
2019-02-18T03:12:12.502Z,-3.8
2019-02-18T03:13:02.837Z,-3.8
2019-02-18T03:13:52.601Z,-3.8
2019-02-18T03:14:42.647Z,-3.8
2019-02-18T03:15:32.990Z,-3.8
2019-02-18T03:16:22.763Z,-3.9
2019-02-18T03:17:12.846Z,-3.9
2019-02-18T03:18:03.152Z,-3.9
2019-02-18T03:18:53.287Z,-3.9
2019-02-18T03:19:43.001Z,-3.9
2019-02-18T03:20:33.321Z,-3.9
2019-02-18T03:21:23.394Z,-3.9
2019-02-18T03:22:13.158Z,-3.9
2019-02-18T03:23:03.249Z,-3.9
2019-02-18T03:23:53.304Z,-3.9
2019-02-18T03:24:43.627Z,-3.9
2019-02-18T03:25:33.419Z,-3.9
2019-02-18T03:26:23.476Z,-3.9
2019-02-18T03:27:13.527Z,-3.9
2019-02-18T03:28:03.598Z,-3.9
2019-02-18T03:28:53.630Z,-4
2019-02-18T03:29:43.978Z,-4
2019-02-18T03:30:33.759Z,-4
2019-02-18T03:31:23.895Z,-4
2019-02-18T03:32:14.191Z,-4
2019-02-18T03:33:04.283Z,-4.1
2019-02-18T03:33:54.030Z,-4.1
2019-02-18T03:34:43.766Z,-4.1
2019-02-18T03:35:34.093Z,-4.1
2019-02-18T03:36:24.145Z,-4.1
2019-02-18T03:37:14.492Z,-4.1
2019-02-18T03:38:04.572Z,-4.1
2019-02-18T03:38:54.330Z,-4.1
2019-02-18T03:39:44.403Z,-4.1
2019-02-18T03:40:34.717Z,-4.1
2019-02-18T03:41:24.753Z,-4.1
2019-02-18T03:42:14.823Z,-4.1
2019-02-18T03:43:04.888Z,-4.1
2019-02-18T03:43:54.670Z,-4.2
2019-02-18T03:44:44.738Z,-4.1
2019-02-18T03:45:35.057Z,-4.2
2019-02-18T03:46:25.120Z,-4.2
2019-02-18T03:47:14.957Z,-4.2
2019-02-18T03:48:05.273Z,-4.2
2019-02-18T03:48:55.298Z,-4.2
2019-02-18T03:49:45.382Z,-4.3
2019-02-18T03:50:35.425Z,-4.3
2019-02-18T03:51:25.185Z,-4.3
2019-02-18T03:52:15.520Z,-4.3
2019-02-18T03:53:05.598Z,-4.3
2019-02-18T03:53:55.629Z,-4.3
2019-02-18T03:54:45.700Z,-4.3
2019-02-18T03:55:35.752Z,-4.3
2019-02-18T03:56:25.527Z,-4.3
2019-02-18T03:57:15.584Z,-4.3
2019-02-18T03:58:05.935Z,-4.3
2019-02-18T03:58:55.700Z,-4.4
2019-02-18T03:59:45.848Z,-4.4
2019-02-18T04:00:35.819Z,-4.4
2019-02-18T04:01:25.862Z,-4.4
2019-02-18T04:02:16.219Z,-4.4
2019-02-18T04:03:05.979Z,-4.4
2019-02-18T04:03:56.057Z,-4.4
2019-02-18T04:04:46.381Z,-4.4
2019-02-18T04:05:36.446Z,-4.4
2019-02-18T04:06:26.038Z,-4.4
2019-02-18T04:07:16.284Z,-4.4
2019-02-18T04:08:06.338Z,-4.4
2019-02-18T04:08:56.694Z,-4.4
2019-02-18T04:09:46.468Z,-4.5
2019-02-18T04:10:36.789Z,-4.4
2019-02-18T04:11:26.838Z,-4.5
2019-02-18T04:12:16.633Z,-4.5
2019-02-18T04:13:06.979Z,-4.5
2019-02-18T04:13:57.038Z,-4.5
2019-02-18T04:14:47.083Z,-4.5
2019-02-18T04:15:37.151Z,-4.6
2019-02-18T04:16:26.913Z,-4.6
2019-02-18T04:17:16.712Z,-4.6
2019-02-18T04:18:07.370Z,-4.6
2019-02-18T04:18:57.354Z,-4.6
2019-02-18T04:19:47.412Z,-4.6
2019-02-18T04:20:37.522Z,-4.6
2019-02-18T04:21:27.065Z,-4.6
2019-02-18T04:22:17.593Z,-4.6
2019-02-18T04:23:07.366Z,-4.6
2019-02-18T04:23:57.160Z,-4.6
2019-02-18T04:24:47.534Z,-4.6
2019-02-18T04:25:37.925Z,-4.6
2019-02-18T04:26:27.941Z,-4.6
2019-02-18T04:27:17.665Z,-4.6
2019-02-18T04:28:07.716Z,-4.6
2019-02-18T04:28:57.783Z,-4.6
2019-02-18T04:29:48.112Z,-4.6
2019-02-18T04:30:38.207Z,-4.6
2019-02-18T04:31:28.219Z,-4.6
2019-02-18T04:32:18.283Z,-4.6
2019-02-18T04:33:08.368Z,-4.6
2019-02-18T04:33:58.406Z,-4.6
2019-02-18T04:34:48.199Z,-4.6
2019-02-18T04:35:38.507Z,-4.7
2019-02-18T04:36:28.584Z,-4.7
2019-02-18T04:37:18.675Z,-4.7
2019-02-18T04:38:08.421Z,-4.7
2019-02-18T04:38:58.467Z,-4.7
2019-02-18T04:39:48.532Z,-4.7
2019-02-18T04:40:38.852Z,-4.7
2019-02-18T04:41:28.964Z,-4.7
2019-02-18T04:42:18.997Z,-4.7
2019-02-18T04:43:09.023Z,-4.7
2019-02-18T04:43:59.124Z,-4.8
2019-02-18T04:44:48.609Z,-4.8
2019-02-18T04:45:38.681Z,-4.8
2019-02-18T04:46:29.269Z,-4.8
2019-02-18T04:47:19.336Z,-4.8
2019-02-18T04:48:09.419Z,-4.8
2019-02-18T04:48:59.446Z,-4.8
2019-02-18T04:49:49.496Z,-4.8
2019-02-18T04:50:39.286Z,-4.8
2019-02-18T04:51:29.659Z,-4.8
2019-02-18T04:52:19.670Z,-4.8
2019-02-18T04:53:09.734Z,-4.8
2019-02-18T04:53:59.781Z,-4.9
2019-02-18T04:54:49.840Z,-4.9
2019-02-18T04:55:39.613Z,-4.9
2019-02-18T04:56:29.958Z,-4.9
2019-02-18T04:57:20.025Z,-4.9
2019-02-18T04:58:10.082Z,-4.9
2019-02-18T04:59:00.138Z,-4.9
2019-02-18T04:59:50.216Z,-4.9
2019-02-18T05:00:40.011Z,-4.9
2019-02-18T05:01:30.323Z,-4.9
2019-02-18T05:02:20.365Z,-4.9
2019-02-18T05:03:10.170Z,-4.9
2019-02-18T05:04:00.549Z,-4.9
2019-02-18T05:04:50.590Z,-5
2019-02-18T05:05:40.593Z,-4.9
2019-02-18T05:06:30.653Z,-4.9
2019-02-18T05:07:20.703Z,-5
2019-02-18T05:08:10.777Z,-5
2019-02-18T05:09:07.149Z,-5
2019-02-18T05:09:50.879Z,-5
2019-02-18T05:10:40.953Z,-5
2019-02-18T05:11:30.716Z,-5
2019-02-18T05:12:21.047Z,-5
2019-02-18T05:13:11.119Z,-5
2019-02-18T05:14:00.930Z,-5.1
2019-02-18T05:14:51.227Z,-5.1
2019-02-18T05:15:41.944Z,-5.1
2019-02-18T05:16:31.068Z,-5.1
2019-02-18T05:17:21.106Z,-5.1
2019-02-18T05:18:11.447Z,-5.1
2019-02-18T05:19:01.522Z,-5.1
2019-02-18T05:19:51.035Z,-5.1
2019-02-18T05:20:41.660Z,-5.1
2019-02-18T05:21:31.418Z,-5.1
2019-02-18T05:22:21.465Z,-5.1
2019-02-18T05:23:11.801Z,-5.1
2019-02-18T05:24:01.861Z,-5.1
2019-02-18T05:24:51.913Z,-5.1
2019-02-18T05:25:41.981Z,-5.1
2019-02-18T05:26:31.743Z,-5.2
2019-02-18T05:27:32.748Z,-5.2
2019-02-18T05:28:12.134Z,-5.2
2019-02-18T05:29:02.250Z,-5.2
2019-02-18T05:29:52.262Z,-5.2
2019-02-18T05:30:42.397Z,-5.2
2019-02-18T05:31:32.374Z,-5.2
2019-02-18T05:32:22.166Z,-5.2
2019-02-18T05:33:12.498Z,-5.2
2019-02-18T05:34:02.594Z,-5.2
2019-02-18T05:34:52.597Z,-5.2
2019-02-18T05:35:42.385Z,-5.2
2019-02-18T05:36:32.727Z,-5.3
2019-02-18T05:37:22.544Z,-5.2
2019-02-18T05:38:12.849Z,-5.2
2019-02-18T05:39:02.345Z,-5.3
2019-02-18T05:39:55.334Z,-5.2
2019-02-18T05:40:43.023Z,-5.3
2019-02-18T05:41:33.155Z,-5.2
2019-02-18T05:42:23.135Z,-5.2
2019-02-18T05:43:13.170Z,-5.2
2019-02-18T05:44:02.969Z,-5.2
2019-02-18T05:44:53.291Z,-5.2
2019-02-18T05:45:43.384Z,-5.3
2019-02-18T05:46:33.402Z,-5.2
2019-02-18T05:47:23.190Z,-5.2
2019-02-18T05:48:13.553Z,-5.2
2019-02-18T05:49:03.331Z,-5.2
2019-02-18T05:49:53.706Z,-5.2
2019-02-18T05:50:43.692Z,-5.1
2019-02-18T05:51:33.755Z,-5.1
2019-02-18T05:52:23.264Z,-5.1
2019-02-18T05:53:13.316Z,-5.1
2019-02-18T05:54:03.644Z,-5.1
2019-02-18T05:54:53.701Z,-5.1
2019-02-18T05:55:43.771Z,-5
2019-02-18T05:56:34.086Z,-5
2019-02-18T05:57:24.635Z,-5
2019-02-18T05:58:14.216Z,-4.9
2019-02-18T05:59:04.323Z,-4.9
2019-02-18T05:59:54.053Z,-4.9
2019-02-18T06:00:44.417Z,-4.9
2019-02-18T06:01:34.179Z,-4.8
2019-02-18T06:02:24.523Z,-4.8
2019-02-18T06:03:14.016Z,-4.7
2019-02-18T06:04:04.627Z,-4.7
2019-02-18T06:06:02.299Z,-4.6
2019-02-18T06:06:52.377Z,-4.4
2019-02-18T06:07:42.436Z,-4.4
2019-02-18T06:08:31.931Z,-4.3
2019-02-18T06:09:31.314Z,-4.3
2019-02-18T06:10:16.960Z,-4.1
2019-02-18T06:11:02.367Z,-4
2019-02-18T06:11:52.709Z,-3.9
2019-02-18T06:12:42.514Z,-3.7
2019-02-18T06:13:32.539Z,-3.5
2019-02-18T06:14:22.920Z,-3.2
2019-02-18T06:15:12.425Z,-2.8
2019-02-18T06:16:02.986Z,-2.4
2019-02-18T06:16:53.043Z,-1.9
2019-02-18T06:17:43.325Z,-1.4
2019-02-18T06:18:33.408Z,-1
2019-02-18T06:19:23.219Z,-0.6
2019-02-18T06:20:13.047Z,-0.3
2019-02-18T06:21:03.066Z,0.1
2019-02-18T06:21:53.397Z,0.5
2019-02-18T06:22:43.713Z,0.9
2019-02-18T06:23:48.165Z,1.3
2019-02-18T06:24:23.347Z,1.9
2019-02-18T06:25:13.594Z,2.2
2019-02-18T06:26:03.453Z,2.6
2019-02-18T06:26:53.729Z,2.8
2019-02-18T06:27:43.799Z,3.1
2019-02-18T06:28:33.909Z,3.3
2019-02-18T06:29:23.926Z,3.3
2019-02-18T06:30:13.976Z,3.3
2019-02-18T06:31:04.047Z,3.4
2019-02-18T06:31:54.076Z,3.4
2019-02-18T06:32:44.149Z,3.4
2019-02-18T06:33:33.971Z,3.4
2019-02-18T06:34:24.288Z,3.4
2019-02-18T06:35:14.116Z,3.4
2019-02-18T06:36:04.393Z,3.4
2019-02-18T06:36:54.192Z,3.4
2019-02-18T06:37:44.233Z,3.5
2019-02-18T06:38:33.991Z,3.5
2019-02-18T06:39:24.627Z,3.6
2019-02-18T06:40:14.774Z,3.6
2019-02-18T06:41:04.820Z,3.7
2019-02-18T06:41:54.488Z,3.8
2019-02-18T06:42:44.802Z,3.8
2019-02-18T06:43:34.893Z,3.9
2019-02-18T06:44:24.947Z,4
2019-02-18T06:45:15.001Z,4.1
2019-02-18T06:46:04.782Z,4.2
2019-02-18T06:46:55.107Z,4.3
2019-02-18T06:47:44.630Z,4.4
2019-02-18T06:48:35.464Z,4.7
2019-02-18T06:49:25.305Z,4.8
2019-02-18T06:50:15.070Z,4.9
2019-02-18T06:51:05.137Z,5.1
2019-02-18T06:51:55.467Z,5.3
2019-02-18T06:52:44.987Z,5.6
2019-02-18T06:53:35.574Z,5.8
2019-02-18T06:55:15.424Z,6.3
2019-02-18T06:56:05.752Z,6.4
2019-02-18T06:56:55.533Z,6.7
2019-02-18T06:57:45.871Z,7
2019-02-18T06:58:35.919Z,7.3
2019-02-18T06:59:25.699Z,7.5
2019-02-18T07:00:16.094Z,7.8
2019-02-18T07:01:05.831Z,8.1
2019-02-18T07:01:55.606Z,8.4
2019-02-18T07:02:46.274Z,8.7
2019-02-18T07:03:35.737Z,9.1
2019-02-18T07:06:02.001Z,5.2
2019-02-18T07:06:52.031Z,28.5
2019-02-18T07:07:41.827Z,37.8
2019-02-18T07:08:32.476Z,37.7
2019-02-18T07:09:22.716Z,37.8
2019-02-18T07:10:11.731Z,36.7
2019-02-18T07:11:02.601Z,35.1
2019-02-18T07:11:52.376Z,34.1
2019-02-18T07:12:42.714Z,33.5
2019-02-18T07:13:32.774Z,32.9
2019-02-18T07:14:22.843Z,32.6
2019-02-18T07:15:12.895Z,32.3
2019-02-18T07:16:02.950Z,31.9
2019-02-18T07:16:52.983Z,31.7
2019-02-18T07:17:42.773Z,31.6
2019-02-18T07:18:33.103Z,31.4
2019-02-18T07:19:23.167Z,31.3
2019-02-18T07:20:12.968Z,31
2019-02-18T07:21:03.008Z,31
2019-02-18T07:21:53.352Z,30.9
2019-02-18T07:22:43.396Z,30.8
2019-02-18T07:23:33.198Z,30.7
2019-02-18T07:24:23.525Z,30.6
2019-02-18T07:25:13.585Z,33.3
2019-02-18T07:26:03.634Z,36.4
2019-02-18T07:26:53.690Z,41.5
2019-02-18T07:27:43.753Z,43.8
2019-02-18T07:28:33.543Z,44
2019-02-18T07:29:23.865Z,46.6
2019-02-18T07:30:13.641Z,48
2019-02-18T07:31:03.707Z,48
2019-02-18T07:31:53.759Z,47.1
2019-02-18T07:32:43.820Z,46.5
2019-02-18T07:33:33.622Z,46.5
2019-02-18T07:34:24.378Z,46.8
2019-02-18T07:35:14.298Z,47.1
2019-02-18T07:36:04.323Z,47.6
2019-02-18T07:36:54.437Z,47.9
2019-02-18T07:37:58.818Z,48.2
2019-02-18T07:38:34.219Z,48.4
2019-02-18T07:39:24.327Z,48.4
2019-02-18T07:40:14.838Z,48.5
2019-02-18T07:41:04.670Z,48.6
2019-02-18T07:41:54.720Z,48.7
2019-02-18T07:42:44.790Z,48.8
2019-02-18T07:43:34.861Z,48.9
2019-02-18T07:44:24.902Z,48.9
2019-02-18T07:45:14.961Z,48.9
2019-02-18T07:46:05.017Z,48.9
2019-02-18T07:46:54.879Z,49.1
2019-02-18T07:47:44.859Z,49.2
2019-02-18T07:48:37.583Z,49.3
2019-02-18T07:49:25.259Z,49.5
2019-02-18T07:50:22.378Z,49.6
2019-02-18T07:51:08.564Z,49.8
2019-02-18T07:51:55.429Z,49.9
2019-02-18T07:52:45.205Z,50
2019-02-18T07:53:35.536Z,50.1
2019-02-18T07:54:25.324Z,50.3
2019-02-18T07:55:15.659Z,50.4
2019-02-18T07:56:05.715Z,50.5
2019-02-18T07:56:55.488Z,50.6
2019-02-18T07:57:45.826Z,50.8
2019-02-18T07:58:35.879Z,50.9
2019-02-18T07:59:25.397Z,51
2019-02-18T08:00:15.988Z,51.1
2019-02-18T08:01:05.779Z,51.3
2019-02-18T08:01:56.121Z,51.4
2019-02-18T08:02:46.206Z,51.5
2019-02-18T08:03:36.255Z,51.6
2019-02-18T08:04:26.276Z,51.8
2019-02-18T08:05:16.368Z,51.9
2019-02-18T08:06:05.850Z,52
2019-02-18T08:06:56.460Z,52.1
2019-02-18T08:07:46.520Z,52.3
2019-02-18T08:09:26.630Z,52.5
2019-02-18T08:10:16.679Z,52.6
2019-02-18T08:11:06.475Z,52.8
2019-02-18T08:11:56.801Z,52.9
2019-02-18T08:12:46.591Z,53
2019-02-18T08:13:36.924Z,53.1
2019-02-18T08:14:26.725Z,53
2019-02-18T08:15:16.772Z,52.6
2019-02-18T08:16:06.827Z,52.6
2019-02-18T08:16:57.164Z,52.8
2019-02-18T08:17:47.217Z,52.9
2019-02-18T08:18:37.286Z,53.1
2019-02-18T08:19:27.047Z,53.3
2019-02-18T08:20:17.387Z,53.4
2019-02-18T08:21:07.157Z,53.6
2019-02-18T08:21:57.521Z,53.6
2019-02-18T08:22:47.554Z,53.8
2019-02-18T08:23:37.604Z,53.9
2019-02-18T08:24:27.129Z,54.1
2019-02-18T08:25:17.459Z,54.2
2019-02-18T08:26:07.806Z,54.3
2019-02-18T08:26:57.851Z,54.5
2019-02-18T08:27:47.899Z,54.6
2019-02-18T08:28:38.014Z,54.8
2019-02-18T08:29:28.019Z,54.9
2019-02-18T08:30:17.818Z,55.1
2019-02-18T08:31:07.856Z,55.2
2019-02-18T08:31:57.909Z,55.3
2019-02-18T08:32:48.253Z,55.4
2019-02-18T08:33:38.321Z,55.6
2019-02-18T08:34:28.363Z,55.8
2019-02-18T08:35:18.417Z,55.9
2019-02-18T08:36:08.213Z,56.1
2019-02-18T08:36:58.271Z,56.3
2019-02-18T08:37:48.669Z,56.3
2019-02-18T08:38:38.438Z,56.5
2019-02-18T08:39:28.725Z,56.6
2019-02-18T08:40:24.110Z,56.7
2019-02-18T08:41:08.818Z,56.8
2019-02-18T08:41:58.605Z,56.9
2019-02-18T08:42:48.673Z,57
2019-02-18T08:43:38.734Z,57.1
2019-02-18T08:44:28.780Z,57.3
2019-02-18T08:45:18.847Z,57.4
2019-02-18T08:46:09.185Z,57.5
2019-02-18T08:46:58.966Z,57.6
2019-02-18T08:47:49.013Z,57.7
2019-02-18T08:48:39.353Z,57.9
2019-02-18T08:49:29.400Z,57.9
2019-02-18T08:50:19.453Z,58.1
2019-02-18T08:51:09.529Z,58.2
2019-02-18T08:51:58.748Z,58.3
2019-02-18T08:52:49.360Z,58.4
2019-02-18T08:53:39.420Z,58.4
2019-02-18T08:55:19.530Z,58.6
2019-02-18T08:56:09.872Z,58.8
2019-02-18T08:56:59.647Z,58.9
2019-02-18T08:57:49.983Z,58.9
2019-02-18T08:58:40.034Z,59.1
2019-02-18T08:59:29.544Z,59.2
2019-02-18T09:00:20.152Z,59.3
2019-02-18T09:01:10.206Z,59.3
2019-02-18T09:02:00.268Z,59.4
2019-02-18T09:02:50.333Z,59.5
2019-02-18T09:03:40.433Z,59.6
2019-02-18T09:04:30.452Z,59.7
2019-02-18T09:05:20.609Z,59.8
2019-02-18T09:06:10.284Z,59.8
2019-02-18T09:07:00.609Z,59.9
2019-02-18T09:07:50.401Z,60
2019-02-18T09:08:40.796Z,60.1
2019-02-18T09:09:30.514Z,60.2
2019-02-18T09:10:20.602Z,60.3
2019-02-18T09:11:10.911Z,60.4
2019-02-18T09:12:00.681Z,60.4
2019-02-18T09:12:50.746Z,60.5
2019-02-18T09:13:40.854Z,60.6
2019-02-18T09:14:31.128Z,60.7
2019-02-18T09:15:21.200Z,60.8
2019-02-18T09:16:11.236Z,60.9
2019-02-18T09:17:01.312Z,60.9
2019-02-18T09:17:51.423Z,61
2019-02-18T09:18:41.039Z,61.1
2019-02-18T09:19:31.001Z,61.2
2019-02-18T09:20:21.533Z,61.3
2019-02-18T09:21:11.329Z,61.4
2019-02-18T09:22:01.378Z,61.4
2019-02-18T09:22:51.250Z,61.5
2019-02-18T09:23:41.772Z,61.6
2019-02-18T09:24:31.550Z,61.6
2019-02-18T09:25:21.888Z,61.7
2019-02-18T09:26:11.453Z,61.8
2019-02-18T09:27:01.576Z,61.9
2019-02-18T09:27:52.069Z,62
2019-02-18T09:28:41.892Z,62.1
2019-02-18T09:29:32.172Z,62.2
2019-02-18T09:30:21.482Z,62.3
2019-02-18T09:31:11.807Z,62.3
2019-02-18T09:32:01.579Z,62.4
2019-02-18T09:32:51.921Z,62.5
2019-02-18T09:33:41.999Z,62.6
2019-02-18T09:34:32.032Z,62.6
2019-02-18T09:35:22.157Z,62.8
2019-02-18T09:36:11.609Z,62.9
2019-02-18T09:37:01.948Z,62.9
2019-02-18T09:37:52.278Z,63
2019-02-18T09:38:42.320Z,63.1
2019-02-18T09:39:32.579Z,63.1
2019-02-18T09:40:22.183Z,63.3
2019-02-18T09:41:11.958Z,63.3
2019-02-18T09:42:02.557Z,63.4
2019-02-18T09:42:52.082Z,63.4
2019-02-18T09:43:42.389Z,63.5
2019-02-18T09:44:32.460Z,63.6
2019-02-18T09:45:22.802Z,63.6
2019-02-18T09:46:12.839Z,63.8
2019-02-18T09:47:03.108Z,63.8
2019-02-18T09:47:55.450Z,63.9
2019-02-18T09:48:42.754Z,64
2019-02-18T09:49:33.074Z,64.1
2019-02-18T09:50:23.616Z,64.1
2019-02-18T09:51:13.182Z,64.3
2019-02-18T09:52:02.987Z,64.3
2019-02-18T09:52:53.296Z,64.4
2019-02-18T09:53:43.854Z,64.5
2019-02-18T09:54:33.916Z,64.6
2019-02-18T09:55:23.401Z,64.6
2019-02-18T09:56:13.531Z,64.8
2019-02-18T09:57:04.073Z,64.9
2019-02-18T09:57:53.650Z,64.9
2019-02-18T09:58:44.250Z,64.9
2019-02-18T09:59:34.246Z,65.1
2019-02-18T10:00:24.305Z,65.1
2019-02-18T10:01:14.368Z,65.2
2019-02-18T10:02:04.428Z,65.3
2019-02-18T10:02:54.208Z,65.3
2019-02-18T10:03:44.272Z,65.4
2019-02-18T10:04:34.619Z,65.4
2019-02-18T10:07:02.113Z,65.6
2019-02-18T10:07:51.338Z,65.8
2019-02-18T10:08:41.950Z,65.9
2019-02-18T10:09:32.270Z,65.9
2019-02-18T10:10:22.415Z,66
2019-02-18T10:11:12.383Z,66.1
2019-02-18T10:12:02.228Z,66.1
2019-02-18T10:12:52.492Z,66.3
2019-02-18T10:13:42.555Z,66.3
2019-02-18T10:14:32.620Z,66.4
2019-02-18T10:15:22.700Z,66.4
2019-02-18T10:16:12.459Z,66.5
2019-02-18T10:17:02.780Z,66.5
2019-02-18T10:17:52.848Z,66.6
2019-02-18T10:18:42.902Z,66.8
2019-02-18T10:19:32.483Z,66.8
2019-02-18T10:20:23.010Z,66.9
2019-02-18T10:21:13.086Z,66.9
2019-02-18T10:22:02.876Z,66.9
2019-02-18T10:22:53.182Z,67.1
2019-02-18T10:23:43.251Z,67.2
2019-02-18T10:24:33.026Z,67.3
2019-02-18T10:25:23.375Z,67.3
2019-02-18T10:26:13.146Z,67.4
2019-02-18T10:27:03.047Z,67.4
2019-02-18T10:27:53.529Z,67.6
2019-02-18T10:28:43.592Z,67.6
2019-02-18T10:29:33.649Z,67.8
2019-02-18T10:30:23.707Z,67.8
2019-02-18T10:31:13.484Z,67.8
2019-02-18T10:32:03.549Z,67.9
2019-02-18T10:32:53.881Z,67.9
2019-02-18T10:33:43.406Z,68
2019-02-18T10:34:33.804Z,68.1
2019-02-18T10:35:23.504Z,68.1
2019-02-18T10:36:14.104Z,68.3
2019-02-18T10:37:04.171Z,68.3
2019-02-18T10:37:56.866Z,68.4
2019-02-18T10:38:44.292Z,68.4
2019-02-18T10:39:34.074Z,68.4
2019-02-18T10:40:24.135Z,68.5
2019-02-18T10:41:14.458Z,68.6
2019-02-18T10:42:04.248Z,68.7
2019-02-18T10:42:54.585Z,68.8
2019-02-18T10:43:44.665Z,68.9
2019-02-18T10:44:34.166Z,68.9
2019-02-18T10:45:24.765Z,68.9
2019-02-18T10:46:14.815Z,69
2019-02-18T10:47:05.165Z,69.1
2019-02-18T10:47:54.953Z,69.2
2019-02-18T10:48:44.718Z,69.3
2019-02-18T10:49:35.050Z,69.3
2019-02-18T10:50:25.121Z,69.3
2019-02-18T10:51:14.900Z,69.4
2019-02-18T10:52:05.272Z,69.5
2019-02-18T10:52:55.631Z,69.6
2019-02-18T10:53:45.395Z,69.7
2019-02-18T10:54:35.410Z,69.7
2019-02-18T10:55:25.207Z,69.8
2019-02-18T10:56:15.927Z,69.8
2019-02-18T10:57:05.290Z,69.9
2019-02-18T10:57:55.645Z,69.9
2019-02-18T10:58:45.150Z,70
2019-02-18T10:59:35.742Z,70.1
2019-02-18T11:00:25.538Z,70.2
2019-02-18T11:01:15.862Z,70.3
2019-02-18T11:02:06.334Z,70.3
2019-02-18T11:02:55.974Z,70.3
2019-02-18T11:03:45.767Z,70.3
2019-02-18T11:04:35.825Z,70.4
2019-02-18T11:05:26.262Z,70.5
2019-02-18T11:06:15.949Z,70.6
2019-02-18T11:07:06.002Z,70.6
2019-02-18T11:07:56.376Z,70.7
2019-02-18T11:08:46.387Z,70.7
2019-02-18T11:09:36.429Z,70.8
2019-02-18T11:10:26.490Z,70.8
2019-02-18T11:11:18.758Z,70.9
2019-02-18T11:12:06.073Z,70.9
2019-02-18T11:12:56.882Z,70.9
2019-02-18T11:13:46.492Z,71
2019-02-18T11:14:36.808Z,71.1
2019-02-18T11:15:26.579Z,71.1
2019-02-18T11:16:16.641Z,71.2
2019-02-18T11:17:06.991Z,71.2
2019-02-18T11:17:57.013Z,71.3
2019-02-18T11:18:47.091Z,71.3
2019-02-18T11:19:36.964Z,71.4
2019-02-18T11:20:27.211Z,71.4
2019-02-18T11:21:17.263Z,71.4
2019-02-18T11:22:07.867Z,71.5
2019-02-18T11:22:57.116Z,71.6
2019-02-18T11:23:47.441Z,71.6
2019-02-18T11:24:37.540Z,71.6
2019-02-18T11:25:27.549Z,71.7
2019-02-18T11:26:17.323Z,71.7
2019-02-18T11:27:07.385Z,71.8